Aeroporto :
LOGIN :

Iscrizione | Disclaimer

   EN    FR    IT 

 










Sommario :    VFR   VFR Marginale   IFR   IFR Intensivo   IFR Molto Intensivo
Visibilità : 
Base nubi : 
>= 8 km
>= 3000ft
5 / 8 km
1000 / 3000 ft
1500m / 5 km
500 / 1000 ft
800 / 1500m
200 / 500 ft
< 800m
< 200 ft
Simboli :   Temporali  Nebbia  Neve Forte  Precipitazioni Forti  Vento > 20 kt
SIGMETs :   Varie  Temporali  Ghiacco  Turbolenza  Onda orograficha  Ceneri Vulcaniche






- Altitudine del aeroporto : 197 ft
- Codice IATA : XOG


LFMO - Orange

ULTIMO METAR :
  • 261400Z AUTO 18006KT 130V220 CAVOK 27/15 Q1017 NOSIG

METARs OBSOLETI :
  • 261330Z AUTO 18006KT 110V230 CAVOK 27/15 Q1017 NOSIG
  • 261300Z AUTO 20008KT 140V240 CAVOK 26/15 Q1017 NOSIG
  • 261230Z AUTO 17006KT 110V250 CAVOK 26/14 Q1018 NOSIG
  • 261200Z AUTO 17005KT 090V230 CAVOK 26/14 Q1018 NOSIG
  • 261130Z AUTO 17007KT 140V220 CAVOK 25/11 Q1018 NOSIG
  • 261100Z AUTO 16005KT 110V220 CAVOK 24/12 Q1018 NOSIG
  • 261030Z AUTO 17004KT 060V230 CAVOK 24/13 Q1018 NOSIG
  • 261000Z AUTO 17003KT 120V230 CAVOK 23/13 Q1018 NOSIG
  • 260930Z AUTO VRB03KT CAVOK 22/14 Q1018 NOSIG

TAF TAF LFMO
Valido dal 26 a 09 ore il 27 a 09 ore UTC


260800Z 2609/2709 VRB03KT CAVOK TX27/2614Z TN14/2705Z
BECMG 2614/2615 21012KT
BECMG 2620/2621 16004KT
TEMPO 2700/2706 4000 BR BKN008 BKN050
BECMG 2706/2707 SHRA
TEMPO 2707/2709 4000 TSRA BKN010 BKN050CB



MetMap, La meteo Aeronautica in un colpo d'occhio ! - Copyright ORBIFLY Dicembre 2007 - Disclaimer

ORBIFLY MET'MAP TEAM :

Programmazione e sviluppo : Alexandra Zaïnal
Concezione : Baudouin d'Aumeries
Supporto tecnico e logistico : Manuel Goepfert
Aiuto : Marc-Olivier Méhu
Aiuto per la traduzione : Arnaldo La Scala




FONTI E CREDITI :

   NOAA